sensor_id;sensor_type;location;lat;lon;timestamp;P1;durP1;ratioP1;P2;durP2;ratioP2
14782;SDS011;7483;50.498;12.138;2023-04-06T00:01:34;2.78;;;2.08;;
14782;SDS011;7483;50.498;12.138;2023-04-06T00:04:02;2.33;;;1.75;;
14782;SDS011;7483;50.498;12.138;2023-04-06T00:06:29;2.85;;;2.08;;
14782;SDS011;7483;50.498;12.138;2023-04-06T00:08:58;2.55;;;2.35;;
14782;SDS011;7483;50.498;12.138;2023-04-06T00:11:25;2.13;;;1.83;;
14782;SDS011;7483;50.498;12.138;2023-04-06T00:13:53;2.88;;;2.00;;
14782;SDS011;7483;50.498;12.138;2023-04-06T00:16:22;2.05;;;1.80;;
14782;SDS011;7483;50.498;12.138;2023-04-06T00:18:50;3.10;;;2.15;;
14782;SDS011;7483;50.498;12.138;2023-04-06T00:21:18;2.70;;;2.08;;
14782;SDS011;7483;50.498;12.138;2023-04-06T00:23:45;2.63;;;2.35;;
14782;SDS011;7483;50.498;12.138;2023-04-06T00:26:13;3.53;;;2.65;;
14782;SDS011;7483;50.498;12.138;2023-04-06T00:28:44;2.75;;;2.22;;
14782;SDS011;7483;50.498;12.138;2023-04-06T00:31:12;1.90;;;1.50;;
14782;SDS011;7483;50.498;12.138;2023-04-06T00:33:41;3.13;;;2.30;;
14782;SDS011;7483;50.498;12.138;2023-04-06T00:36:08;2.72;;;2.45;;
14782;SDS011;7483;50.498;12.138;2023-04-06T00:38:36;2.75;;;2.03;;
14782;SDS011;7483;50.498;12.138;2023-04-06T00:41:03;3.55;;;2.40;;
14782;SDS011;7483;50.498;12.138;2023-04-06T00:43:31;3.67;;;2.45;;
14782;SDS011;7483;50.498;12.138;2023-04-06T00:45:59;2.80;;;2.17;;
14782;SDS011;7483;50.498;12.138;2023-04-06T00:48:26;2.70;;;2.30;;
14782;SDS011;7483;50.498;12.138;2023-04-06T00:50:55;2.90;;;2.70;;
14782;SDS011;7483;50.498;12.138;2023-04-06T00:53:23;3.03;;;2.40;;
14782;SDS011;7483;50.498;12.138;2023-04-06T00:55:51;2.78;;;2.10;;
14782;SDS011;7483;50.498;12.138;2023-04-06T00:58:20;2.50;;;2.30;;
14782;SDS011;7483;50.498;12.138;2023-04-06T01:00:53;3.85;;;2.10;;
14782;SDS011;7483;50.498;12.138;2023-04-06T01:03:22;3.03;;;2.30;;
14782;SDS011;7483;50.498;12.138;2023-04-06T01:05:49;5.35;;;2.90;;
14782;SDS011;7483;50.498;12.138;2023-04-06T01:08:26;3.00;;;2.40;;
14782;SDS011;7483;50.498;12.138;2023-04-06T01:11:06;2.75;;;2.33;;
14782;SDS011;7483;50.498;12.138;2023-04-06T01:13:35;2.63;;;1.92;;
14782;SDS011;7483;50.498;12.138;2023-04-06T01:16:07;2.83;;;2.30;;
14782;SDS011;7483;50.498;12.138;2023-04-06T01:18:59;5.05;;;2.38;;
14782;SDS011;7483;50.498;12.138;2023-04-06T01:21:30;2.47;;;2.08;;
14782;SDS011;7483;50.498;12.138;2023-04-06T01:24:18;4.78;;;2.40;;
14782;SDS011;7483;50.498;12.138;2023-04-06T01:27:11;2.50;;;2.20;;
14782;SDS011;7483;50.498;12.138;2023-04-06T01:29:52;2.28;;;2.08;;
14782;SDS011;7483;50.498;12.138;2023-04-06T01:32:33;3.45;;;2.03;;
14782;SDS011;7483;50.498;12.138;2023-04-06T01:35:01;2.20;;;1.77;;
14782;SDS011;7483;50.498;12.138;2023-04-06T01:37:32;3.08;;;2.30;;
14782;SDS011;7483;50.498;12.138;2023-04-06T01:40:05;2.08;;;1.88;;
14782;SDS011;7483;50.498;12.138;2023-04-06T01:42:47;2.70;;;2.28;;
14782;SDS011;7483;50.498;12.138;2023-04-06T01:45:26;2.45;;;1.88;;
14782;SDS011;7483;50.498;12.138;2023-04-06T01:47:59;3.10;;;2.80;;
14782;SDS011;7483;50.498;12.138;2023-04-06T01:50:28;2.72;;;2.30;;
14782;SDS011;7483;50.498;12.138;2023-04-06T01:52:55;2.38;;;2.08;;
14782;SDS011;7483;50.498;12.138;2023-04-06T01:55:26;2.60;;;2.13;;
14782;SDS011;7483;50.498;12.138;2023-04-06T01:58:20;2.47;;;1.95;;
14782;SDS011;7483;50.498;12.138;2023-04-06T02:00:48;3.22;;;2.15;;
14782;SDS011;7483;50.498;12.138;2023-04-06T02:03:16;2.53;;;2.15;;
14782;SDS011;7483;50.498;12.138;2023-04-06T02:05:45;2.38;;;2.17;;
14782;SDS011;7483;50.498;12.138;2023-04-06T02:08:23;2.47;;;2.22;;
14782;SDS011;7483;50.498;12.138;2023-04-06T02:10:52;2.30;;;2.10;;
14782;SDS011;7483;50.498;12.138;2023-04-06T02:13:28;2.97;;;2.10;;
14782;SDS011;7483;50.498;12.138;2023-04-06T02:15:56;3.55;;;2.38;;
14782;SDS011;7483;50.498;12.138;2023-04-06T02:18:25;2.47;;;2.28;;
14782;SDS011;7483;50.498;12.138;2023-04-06T02:20:54;2.25;;;2.03;;
14782;SDS011;7483;50.498;12.138;2023-04-06T02:23:22;3.38;;;2.25;;
14782;SDS011;7483;50.498;12.138;2023-04-06T02:25:51;2.67;;;2.10;;
14782;SDS011;7483;50.498;12.138;2023-04-06T02:28:19;2.15;;;1.90;;
14782;SDS011;7483;50.498;12.138;2023-04-06T02:30:47;2.35;;;2.03;;
14782;SDS011;7483;50.498;12.138;2023-04-06T02:33:15;3.78;;;2.35;;
14782;SDS011;7483;50.498;12.138;2023-04-06T02:35:45;2.30;;;2.10;;
14782;SDS011;7483;50.498;12.138;2023-04-06T02:38:13;2.78;;;2.00;;
14782;SDS011;7483;50.498;12.138;2023-04-06T02:40:41;2.08;;;1.88;;
14782;SDS011;7483;50.498;12.138;2023-04-06T02:43:18;2.38;;;2.17;;
14782;SDS011;7483;50.498;12.138;2023-04-06T02:45:49;2.03;;;1.83;;
14782;SDS011;7483;50.498;12.138;2023-04-06T02:48:19;2.55;;;2.13;;
14782;SDS011;7483;50.498;12.138;2023-04-06T02:50:47;3.45;;;2.67;;
14782;SDS011;7483;50.498;12.138;2023-04-06T02:53:14;2.70;;;2.50;;
14782;SDS011;7483;50.498;12.138;2023-04-06T02:55:42;4.43;;;2.25;;
14782;SDS011;7483;50.498;12.138;2023-04-06T02:58:10;2.65;;;2.45;;
14782;SDS011;7483;50.498;12.138;2023-04-06T03:00:45;2.10;;;1.95;;
14782;SDS011;7483;50.498;12.138;2023-04-06T03:03:13;2.67;;;2.47;;
14782;SDS011;7483;50.498;12.138;2023-04-06T03:05:44;2.63;;;1.92;;
14782;SDS011;7483;50.498;12.138;2023-04-06T03:08:13;2.47;;;1.80;;
14782;SDS011;7483;50.498;12.138;2023-04-06T03:10:43;4.22;;;2.03;;
14782;SDS011;7483;50.498;12.138;2023-04-06T03:13:11;2.17;;;1.98;;
14782;SDS011;7483;50.498;12.138;2023-04-06T03:15:49;2.25;;;1.70;;
14782;SDS011;7483;50.498;12.138;2023-04-06T03:18:20;2.15;;;1.92;;
14782;SDS011;7483;50.498;12.138;2023-04-06T03:20:50;1.80;;;1.70;;
14782;SDS011;7483;50.498;12.138;2023-04-06T03:23:21;1.98;;;1.77;;
14782;SDS011;7483;50.498;12.138;2023-04-06T03:25:55;2.60;;;1.85;;
14782;SDS011;7483;50.498;12.138;2023-04-06T03:28:22;2.30;;;2.10;;
14782;SDS011;7483;50.498;12.138;2023-04-06T03:31:01;3.35;;;2.33;;
14782;SDS011;7483;50.498;12.138;2023-04-06T03:33:38;2.58;;;1.95;;
14782;SDS011;7483;50.498;12.138;2023-04-06T03:36:08;3.22;;;2.20;;
14782;SDS011;7483;50.498;12.138;2023-04-06T03:38:39;2.25;;;1.80;;
14782;SDS011;7483;50.498;12.138;2023-04-06T03:41:11;2.58;;;2.05;;
14782;SDS011;7483;50.498;12.138;2023-04-06T03:43:42;2.92;;;2.38;;
14782;SDS011;7483;50.498;12.138;2023-04-06T03:46:11;2.20;;;1.90;;
14782;SDS011;7483;50.498;12.138;2023-04-06T03:48:38;3.40;;;2.17;;
14782;SDS011;7483;50.498;12.138;2023-04-06T03:51:06;3.80;;;2.63;;
14782;SDS011;7483;50.498;12.138;2023-04-06T03:53:33;3.17;;;2.08;;
14782;SDS011;7483;50.498;12.138;2023-04-06T03:56:03;3.90;;;2.45;;
14782;SDS011;7483;50.498;12.138;2023-04-06T03:58:31;3.15;;;2.85;;
14782;SDS011;7483;50.498;12.138;2023-04-06T04:00:58;2.60;;;2.40;;
14782;SDS011;7483;50.498;12.138;2023-04-06T04:03:27;4.22;;;3.92;;
14782;SDS011;7483;50.498;12.138;2023-04-06T04:05:55;2.95;;;2.70;;
14782;SDS011;7483;50.498;12.138;2023-04-06T04:08:24;2.45;;;2.25;;
14782;SDS011;7483;50.498;12.138;2023-04-06T04:10:52;3.33;;;2.35;;
14782;SDS011;7483;50.498;12.138;2023-04-06T04:13:19;2.50;;;2.30;;
14782;SDS011;7483;50.498;12.138;2023-04-06T04:15:49;3.47;;;2.47;;
14782;SDS011;7483;50.498;12.138;2023-04-06T04:18:17;3.15;;;2.53;;
14782;SDS011;7483;50.498;12.138;2023-04-06T04:20:46;3.80;;;2.75;;
14782;SDS011;7483;50.498;12.138;2023-04-06T04:23:13;2.30;;;2.10;;
14782;SDS011;7483;50.498;12.138;2023-04-06T04:25:41;2.70;;;2.08;;
14782;SDS011;7483;50.498;12.138;2023-04-06T04:28:08;3.00;;;2.70;;
14782;SDS011;7483;50.498;12.138;2023-04-06T04:30:38;2.47;;;2.22;;
14782;SDS011;7483;50.498;12.138;2023-04-06T04:33:08;2.38;;;2.17;;
14782;SDS011;7483;50.498;12.138;2023-04-06T04:35:36;2.65;;;2.45;;
14782;SDS011;7483;50.498;12.138;2023-04-06T04:38:06;3.30;;;2.70;;
14782;SDS011;7483;50.498;12.138;2023-04-06T04:40:39;4.35;;;2.38;;
14782;SDS011;7483;50.498;12.138;2023-04-06T04:43:08;2.72;;;2.42;;
14782;SDS011;7483;50.498;12.138;2023-04-06T04:45:37;5.30;;;2.72;;
14782;SDS011;7483;50.498;12.138;2023-04-06T04:48:14;3.83;;;2.20;;
14782;SDS011;7483;50.498;12.138;2023-04-06T04:50:50;2.70;;;2.45;;
14782;SDS011;7483;50.498;12.138;2023-04-06T04:53:23;2.90;;;2.58;;
14782;SDS011;7483;50.498;12.138;2023-04-06T04:55:56;6.18;;;2.70;;
14782;SDS011;7483;50.498;12.138;2023-04-06T04:58:26;4.00;;;2.45;;
14782;SDS011;7483;50.498;12.138;2023-04-06T05:00:56;4.88;;;3.40;;
14782;SDS011;7483;50.498;12.138;2023-04-06T05:03:24;3.92;;;2.45;;
14782;SDS011;7483;50.498;12.138;2023-04-06T05:05:57;5.95;;;3.42;;
14782;SDS011;7483;50.498;12.138;2023-04-06T05:08:30;2.90;;;2.47;;
14782;SDS011;7483;50.498;12.138;2023-04-06T05:10:59;2.72;;;2.45;;
14782;SDS011;7483;50.498;12.138;2023-04-06T05:13:30;3.08;;;2.80;;
14782;SDS011;7483;50.498;12.138;2023-04-06T05:16:00;5.18;;;3.05;;
14782;SDS011;7483;50.498;12.138;2023-04-06T05:18:31;3.78;;;2.80;;
14782;SDS011;7483;50.498;12.138;2023-04-06T05:21:00;5.30;;;2.80;;
14782;SDS011;7483;50.498;12.138;2023-04-06T05:23:37;4.43;;;3.05;;
14782;SDS011;7483;50.498;12.138;2023-04-06T05:26:05;5.60;;;3.45;;
14782;SDS011;7483;50.498;12.138;2023-04-06T05:28:33;3.85;;;3.40;;
14782;SDS011;7483;50.498;12.138;2023-04-06T05:31:01;5.10;;;3.40;;
14782;SDS011;7483;50.498;12.138;2023-04-06T05:33:37;5.20;;;3.28;;
14782;SDS011;7483;50.498;12.138;2023-04-06T05:36:08;5.25;;;3.70;;
14782;SDS011;7483;50.498;12.138;2023-04-06T05:38:43;4.28;;;3.88;;
14782;SDS011;7483;50.498;12.138;2023-04-06T05:41:25;3.00;;;2.70;;
14782;SDS011;7483;50.498;12.138;2023-04-06T05:43:54;3.30;;;2.78;;
14782;SDS011;7483;50.498;12.138;2023-04-06T05:46:22;3.67;;;2.90;;
14782;SDS011;7483;50.498;12.138;2023-04-06T05:48:52;4.57;;;3.42;;
14782;SDS011;7483;50.498;12.138;2023-04-06T05:51:23;6.85;;;3.38;;
14782;SDS011;7483;50.498;12.138;2023-04-06T05:53:54;4.03;;;3.28;;
14782;SDS011;7483;50.498;12.138;2023-04-06T05:56:21;3.80;;;3.20;;
14782;SDS011;7483;50.498;12.138;2023-04-06T05:58:50;3.45;;;2.95;;
14782;SDS011;7483;50.498;12.138;2023-04-06T06:01:23;3.38;;;3.05;;
14782;SDS011;7483;50.498;12.138;2023-04-06T06:03:51;4.07;;;3.15;;
14782;SDS011;7483;50.498;12.138;2023-04-06T06:06:19;4.22;;;3.30;;
14782;SDS011;7483;50.498;12.138;2023-04-06T06:09:05;3.20;;;2.60;;
14782;SDS011;7483;50.498;12.138;2023-04-06T06:11:39;4.20;;;3.45;;
14782;SDS011;7483;50.498;12.138;2023-04-06T06:14:08;3.67;;;3.38;;
14782;SDS011;7483;50.498;12.138;2023-04-06T06:16:38;4.18;;;3.10;;
14782;SDS011;7483;50.498;12.138;2023-04-06T06:19:08;3.42;;;2.88;;
14782;SDS011;7483;50.498;12.138;2023-04-06T06:21:36;4.43;;;3.60;;
14782;SDS011;7483;50.498;12.138;2023-04-06T06:24:06;3.95;;;3.53;;
14782;SDS011;7483;50.498;12.138;2023-04-06T06:26:34;4.45;;;3.00;;
14782;SDS011;7483;50.498;12.138;2023-04-06T06:29:03;6.40;;;3.45;;
14782;SDS011;7483;50.498;12.138;2023-04-06T06:31:35;4.07;;;3.15;;
14782;SDS011;7483;50.498;12.138;2023-04-06T06:34:03;4.30;;;2.90;;
14782;SDS011;7483;50.498;12.138;2023-04-06T06:36:32;3.58;;;3.22;;
14782;SDS011;7483;50.498;12.138;2023-04-06T06:39:04;4.43;;;3.58;;
14782;SDS011;7483;50.498;12.138;2023-04-06T06:41:33;6.80;;;3.40;;
14782;SDS011;7483;50.498;12.138;2023-04-06T06:44:03;3.00;;;2.70;;
14782;SDS011;7483;50.498;12.138;2023-04-06T06:46:33;3.78;;;2.92;;
14782;SDS011;7483;50.498;12.138;2023-04-06T06:49:01;4.05;;;3.15;;
14782;SDS011;7483;50.498;12.138;2023-04-06T06:51:29;4.05;;;2.92;;
14782;SDS011;7483;50.498;12.138;2023-04-06T06:53:57;6.05;;;3.92;;
14782;SDS011;7483;50.498;12.138;2023-04-06T06:56:24;5.28;;;3.53;;
14782;SDS011;7483;50.498;12.138;2023-04-06T06:58:54;3.83;;;3.38;;
14782;SDS011;7483;50.498;12.138;2023-04-06T07:01:21;4.78;;;3.53;;
14782;SDS011;7483;50.498;12.138;2023-04-06T07:03:49;3.85;;;3.38;;
14782;SDS011;7483;50.498;12.138;2023-04-06T07:06:17;5.15;;;3.45;;
14782;SDS011;7483;50.498;12.138;2023-04-06T07:08:45;5.97;;;3.10;;
14782;SDS011;7483;50.498;12.138;2023-04-06T07:11:12;3.55;;;3.17;;
14782;SDS011;7483;50.498;12.138;2023-04-06T07:13:40;3.78;;;3.22;;
14782;SDS011;7483;50.498;12.138;2023-04-06T07:16:09;4.35;;;3.90;;
14782;SDS011;7483;50.498;12.138;2023-04-06T07:18:36;4.60;;;3.92;;
14782;SDS011;7483;50.498;12.138;2023-04-06T07:21:04;4.93;;;3.38;;
14782;SDS011;7483;50.498;12.138;2023-04-06T07:23:31;5.00;;;3.22;;
14782;SDS011;7483;50.498;12.138;2023-04-06T07:25:59;2.53;;;2.25;;
14782;SDS011;7483;50.498;12.138;2023-04-06T07:28:26;4.63;;;2.90;;
14782;SDS011;7483;50.498;12.138;2023-04-06T07:30:54;4.75;;;2.60;;
14782;SDS011;7483;50.498;12.138;2023-04-06T07:33:23;4.65;;;2.80;;
14782;SDS011;7483;50.498;12.138;2023-04-06T07:35:53;3.90;;;2.85;;
14782;SDS011;7483;50.498;12.138;2023-04-06T07:38:21;3.47;;;3.17;;
14782;SDS011;7483;50.498;12.138;2023-04-06T07:40:50;4.10;;;3.08;;
14782;SDS011;7483;50.498;12.138;2023-04-06T07:43:18;4.95;;;2.92;;
14782;SDS011;7483;50.498;12.138;2023-04-06T07:45:45;3.85;;;2.95;;
14782;SDS011;7483;50.498;12.138;2023-04-06T07:48:15;6.22;;;3.20;;
14782;SDS011;7483;50.498;12.138;2023-04-06T07:50:44;3.47;;;2.83;;
14782;SDS011;7483;50.498;12.138;2023-04-06T07:53:14;4.35;;;3.72;;
14782;SDS011;7483;50.498;12.138;2023-04-06T07:55:43;3.83;;;3.17;;
14782;SDS011;7483;50.498;12.138;2023-04-06T07:58:10;3.30;;;2.95;;
14782;SDS011;7483;50.498;12.138;2023-04-06T08:00:38;3.10;;;2.45;;
14782;SDS011;7483;50.498;12.138;2023-04-06T08:03:05;2.53;;;2.10;;
14782;SDS011;7483;50.498;12.138;2023-04-06T08:05:33;2.92;;;2.63;;
14782;SDS011;7483;50.498;12.138;2023-04-06T08:08:02;2.25;;;2.05;;
14782;SDS011;7483;50.498;12.138;2023-04-06T08:10:30;3.70;;;2.60;;
14782;SDS011;7483;50.498;12.138;2023-04-06T08:12:57;4.63;;;1.55;;
14782;SDS011;7483;50.498;12.138;2023-04-06T08:15:26;2.65;;;2.00;;
14782;SDS011;7483;50.498;12.138;2023-04-06T08:17:53;2.13;;;1.83;;
14782;SDS011;7483;50.498;12.138;2023-04-06T08:20:23;2.10;;;1.77;;
14782;SDS011;7483;50.498;12.138;2023-04-06T08:22:51;3.03;;;1.73;;
14782;SDS011;7483;50.498;12.138;2023-04-06T08:25:20;2.78;;;2.13;;
14782;SDS011;7483;50.498;12.138;2023-04-06T08:27:47;3.13;;;2.92;;
14782;SDS011;7483;50.498;12.138;2023-04-06T08:30:15;2.47;;;1.55;;
14782;SDS011;7483;50.498;12.138;2023-04-06T08:32:45;3.05;;;2.25;;
14782;SDS011;7483;50.498;12.138;2023-04-06T08:35:12;3.88;;;2.28;;
14782;SDS011;7483;50.498;12.138;2023-04-06T08:37:40;2.28;;;1.42;;
14782;SDS011;7483;50.498;12.138;2023-04-06T08:40:08;3.17;;;2.13;;
14782;SDS011;7483;50.498;12.138;2023-04-06T08:42:39;2.33;;;1.85;;
14782;SDS011;7483;50.498;12.138;2023-04-06T08:45:08;2.35;;;2.15;;
14782;SDS011;7483;50.498;12.138;2023-04-06T08:47:36;2.22;;;2.03;;
14782;SDS011;7483;50.498;12.138;2023-04-06T08:50:04;2.50;;;2.30;;
14782;SDS011;7483;50.498;12.138;2023-04-06T08:52:32;2.03;;;1.83;;
14782;SDS011;7483;50.498;12.138;2023-04-06T08:55:00;2.05;;;1.85;;
14782;SDS011;7483;50.498;12.138;2023-04-06T08:57:31;2.70;;;1.90;;
14782;SDS011;7483;50.498;12.138;2023-04-06T09:00:00;3.28;;;1.75;;
14782;SDS011;7483;50.498;12.138;2023-04-06T09:02:28;1.95;;;1.85;;
14782;SDS011;7483;50.498;12.138;2023-04-06T09:04:57;3.25;;;2.30;;
14782;SDS011;7483;50.498;12.138;2023-04-06T09:07:24;2.05;;;1.92;;
14782;SDS011;7483;50.498;12.138;2023-04-06T09:09:52;2.42;;;2.15;;
14782;SDS011;7483;50.498;12.138;2023-04-06T09:12:23;3.45;;;3.15;;
14782;SDS011;7483;50.498;12.138;2023-04-06T09:14:52;2.85;;;2.40;;
14782;SDS011;7483;50.498;12.138;2023-04-06T09:17:22;1.98;;;1.80;;
14782;SDS011;7483;50.498;12.138;2023-04-06T09:19:50;2.85;;;2.28;;
14782;SDS011;7483;50.498;12.138;2023-04-06T09:22:18;2.72;;;2.28;;
14782;SDS011;7483;50.498;12.138;2023-04-06T09:24:46;2.28;;;1.90;;
14782;SDS011;7483;50.498;12.138;2023-04-06T09:27:15;1.95;;;1.85;;
14782;SDS011;7483;50.498;12.138;2023-04-06T09:29:44;2.08;;;1.88;;
14782;SDS011;7483;50.498;12.138;2023-04-06T09:32:11;2.15;;;2.05;;
14782;SDS011;7483;50.498;12.138;2023-04-06T09:34:44;3.00;;;2.80;;
14782;SDS011;7483;50.498;12.138;2023-04-06T09:37:16;1.70;;;1.60;;
14782;SDS011;7483;50.498;12.138;2023-04-06T09:39:45;2.25;;;1.95;;
14782;SDS011;7483;50.498;12.138;2023-04-06T09:42:22;2.13;;;2.03;;
14782;SDS011;7483;50.498;12.138;2023-04-06T09:44:50;1.63;;;1.52;;
14782;SDS011;7483;50.498;12.138;2023-04-06T09:47:18;2.58;;;1.85;;
14782;SDS011;7483;50.498;12.138;2023-04-06T09:49:49;2.92;;;2.33;;
14782;SDS011;7483;50.498;12.138;2023-04-06T09:52:17;2.25;;;2.05;;
14782;SDS011;7483;50.498;12.138;2023-04-06T09:54:45;2.50;;;2.30;;
14782;SDS011;7483;50.498;12.138;2023-04-06T09:57:15;2.58;;;2.10;;
14782;SDS011;7483;50.498;12.138;2023-04-06T09:59:50;1.80;;;1.70;;
14782;SDS011;7483;50.498;12.138;2023-04-06T10:02:23;2.83;;;2.50;;
14782;SDS011;7483;50.498;12.138;2023-04-06T10:04:59;2.85;;;2.17;;
14782;SDS011;7483;50.498;12.138;2023-04-06T10:07:30;2.65;;;2.45;;
14782;SDS011;7483;50.498;12.138;2023-04-06T10:09:58;2.38;;;2.00;;
14782;SDS011;7483;50.498;12.138;2023-04-06T10:12:26;3.08;;;2.75;;
14782;SDS011;7483;50.498;12.138;2023-04-06T10:14:54;1.17;;;1.08;;
14782;SDS011;7483;50.498;12.138;2023-04-06T10:17:21;2.38;;;2.17;;
14782;SDS011;7483;50.498;12.138;2023-04-06T10:19:52;2.15;;;1.80;;
14782;SDS011;7483;50.498;12.138;2023-04-06T10:22:24;3.20;;;2.10;;
14782;SDS011;7483;50.498;12.138;2023-04-06T10:24:55;2.92;;;2.42;;
14782;SDS011;7483;50.498;12.138;2023-04-06T10:27:29;1.75;;;1.65;;
14782;SDS011;7483;50.498;12.138;2023-04-06T10:30:00;2.58;;;2.15;;
14782;SDS011;7483;50.498;12.138;2023-04-06T10:32:35;2.10;;;1.90;;
14782;SDS011;7483;50.498;12.138;2023-04-06T10:35:07;1.70;;;1.60;;
14782;SDS011;7483;50.498;12.138;2023-04-06T10:37:50;1.60;;;1.50;;
14782;SDS011;7483;50.498;12.138;2023-04-06T10:40:20;2.55;;;2.20;;
14782;SDS011;7483;50.498;12.138;2023-04-06T10:42:49;2.28;;;1.98;;
14782;SDS011;7483;50.498;12.138;2023-04-06T10:45:20;6.55;;;1.58;;
14782;SDS011;7483;50.498;12.138;2023-04-06T10:47:49;2.30;;;2.10;;
14782;SDS011;7483;50.498;12.138;2023-04-06T10:50:19;2.22;;;2.10;;
14782;SDS011;7483;50.498;12.138;2023-04-06T10:52:59;2.10;;;1.90;;
14782;SDS011;7483;50.498;12.138;2023-04-06T10:55:27;2.20;;;2.03;;
14782;SDS011;7483;50.498;12.138;2023-04-06T10:57:55;2.08;;;1.85;;
14782;SDS011;7483;50.498;12.138;2023-04-06T11:00:23;2.75;;;2.45;;
14782;SDS011;7483;50.498;12.138;2023-04-06T11:03:04;2.40;;;2.08;;
14782;SDS011;7483;50.498;12.138;2023-04-06T11:05:32;2.50;;;2.30;;
14782;SDS011;7483;50.498;12.138;2023-04-06T11:08:01;1.67;;;1.58;;
14782;SDS011;7483;50.498;12.138;2023-04-06T11:10:29;2.38;;;2.00;;
14782;SDS011;7483;50.498;12.138;2023-04-06T11:12:57;2.30;;;2.10;;
14782;SDS011;7483;50.498;12.138;2023-04-06T11:15:24;2.25;;;2.03;;
14782;SDS011;7483;50.498;12.138;2023-04-06T11:17:52;3.03;;;2.72;;
14782;SDS011;7483;50.498;12.138;2023-04-06T11:20:19;3.15;;;2.38;;
14782;SDS011;7483;50.498;12.138;2023-04-06T11:22:47;2.92;;;2.10;;
14782;SDS011;7483;50.498;12.138;2023-04-06T11:25:17;3.80;;;2.13;;
14782;SDS011;7483;50.498;12.138;2023-04-06T11:27:45;2.13;;;1.90;;
14782;SDS011;7483;50.498;12.138;2023-04-06T11:30:14;2.20;;;2.00;;
14782;SDS011;7483;50.498;12.138;2023-04-06T11:32:42;1.38;;;1.25;;
14782;SDS011;7483;50.498;12.138;2023-04-06T11:35:11;1.95;;;1.70;;
14782;SDS011;7483;50.498;12.138;2023-04-06T11:37:42;2.63;;;1.92;;
14782;SDS011;7483;50.498;12.138;2023-04-06T11:40:10;2.40;;;2.20;;
14782;SDS011;7483;50.498;12.138;2023-04-06T11:42:39;2.20;;;1.60;;
14782;SDS011;7483;50.498;12.138;2023-04-06T11:45:07;3.58;;;1.55;;
14782;SDS011;7483;50.498;12.138;2023-04-06T11:47:36;1.92;;;1.70;;
14782;SDS011;7483;50.498;12.138;2023-04-06T11:50:07;2.67;;;1.90;;
14782;SDS011;7483;50.498;12.138;2023-04-06T11:52:35;2.40;;;2.20;;
14782;SDS011;7483;50.498;12.138;2023-04-06T11:55:10;2.40;;;2.20;;
14782;SDS011;7483;50.498;12.138;2023-04-06T11:57:40;2.28;;;2.03;;
14782;SDS011;7483;50.498;12.138;2023-04-06T12:00:09;1.92;;;1.60;;
14782;SDS011;7483;50.498;12.138;2023-04-06T12:02:37;1.75;;;1.65;;
14782;SDS011;7483;50.498;12.138;2023-04-06T12:05:05;1.85;;;1.58;;
14782;SDS011;7483;50.498;12.138;2023-04-06T12:07:34;2.63;;;2.13;;
14782;SDS011;7483;50.498;12.138;2023-04-06T12:10:02;1.95;;;1.77;;
14782;SDS011;7483;50.498;12.138;2023-04-06T12:12:31;1.73;;;1.60;;
14782;SDS011;7483;50.498;12.138;2023-04-06T12:15:00;2.13;;;1.92;;
14782;SDS011;7483;50.498;12.138;2023-04-06T12:17:27;2.05;;;1.90;;
14782;SDS011;7483;50.498;12.138;2023-04-06T12:19:55;3.80;;;2.00;;
14782;SDS011;7483;50.498;12.138;2023-04-06T12:22:34;3.47;;;1.95;;
14782;SDS011;7483;50.498;12.138;2023-04-06T12:25:02;2.00;;;1.90;;
14782;SDS011;7483;50.498;12.138;2023-04-06T12:27:30;2.80;;;2.20;;
14782;SDS011;7483;50.498;12.138;2023-04-06T12:29:59;2.42;;;2.08;;
14782;SDS011;7483;50.498;12.138;2023-04-06T12:32:27;1.98;;;1.85;;
14782;SDS011;7483;50.498;12.138;2023-04-06T12:34:55;2.47;;;2.28;;
14782;SDS011;7483;50.498;12.138;2023-04-06T12:37:22;2.10;;;1.88;;
14782;SDS011;7483;50.498;12.138;2023-04-06T12:39:50;1.92;;;1.83;;
14782;SDS011;7483;50.498;12.138;2023-04-06T12:42:17;2.10;;;1.65;;
14782;SDS011;7483;50.498;12.138;2023-04-06T12:44:45;1.27;;;1.13;;
14782;SDS011;7483;50.498;12.138;2023-04-06T12:47:14;2.05;;;1.95;;
14782;SDS011;7483;50.498;12.138;2023-04-06T12:49:42;1.80;;;1.60;;
14782;SDS011;7483;50.498;12.138;2023-04-06T12:52:10;1.73;;;1.63;;
14782;SDS011;7483;50.498;12.138;2023-04-06T12:54:38;2.50;;;2.30;;
14782;SDS011;7483;50.498;12.138;2023-04-06T12:57:05;1.60;;;1.50;;
14782;SDS011;7483;50.498;12.138;2023-04-06T12:59:33;1.42;;;1.30;;
14782;SDS011;7483;50.498;12.138;2023-04-06T13:02:00;1.35;;;1.25;;
14782;SDS011;7483;50.498;12.138;2023-04-06T13:04:29;1.77;;;1.50;;
14782;SDS011;7483;50.498;12.138;2023-04-06T13:06:57;1.42;;;1.33;;
14782;SDS011;7483;50.498;12.138;2023-04-06T13:09:24;2.72;;;1.48;;
14782;SDS011;7483;50.498;12.138;2023-04-06T13:11:52;1.73;;;1.60;;
14782;SDS011;7483;50.498;12.138;2023-04-06T13:14:19;1.33;;;1.23;;
14782;SDS011;7483;50.498;12.138;2023-04-06T13:16:47;2.30;;;1.73;;
14782;SDS011;7483;50.498;12.138;2023-04-06T13:19:15;1.45;;;1.35;;
14782;SDS011;7483;50.498;12.138;2023-04-06T13:21:45;1.52;;;1.42;;
14782;SDS011;7483;50.498;12.138;2023-04-06T13:24:13;1.40;;;1.17;;
14782;SDS011;7483;50.498;12.138;2023-04-06T13:26:42;1.38;;;1.20;;
14782;SDS011;7483;50.498;12.138;2023-04-06T13:29:10;1.33;;;1.10;;
14782;SDS011;7483;50.498;12.138;2023-04-06T13:31:37;2.20;;;1.23;;
14782;SDS011;7483;50.498;12.138;2023-04-06T13:34:05;2.08;;;1.30;;
14782;SDS011;7483;50.498;12.138;2023-04-06T13:36:33;1.50;;;1.40;;
14782;SDS011;7483;50.498;12.138;2023-04-06T13:39:02;1.40;;;1.10;;
14782;SDS011;7483;50.498;12.138;2023-04-06T13:41:30;1.60;;;1.50;;
14782;SDS011;7483;50.498;12.138;2023-04-06T13:43:58;1.33;;;1.17;;
14782;SDS011;7483;50.498;12.138;2023-04-06T13:46:25;1.52;;;1.10;;
14782;SDS011;7483;50.498;12.138;2023-04-06T13:48:54;1.50;;;1.40;;
14782;SDS011;7483;50.498;12.138;2023-04-06T13:51:21;1.30;;;1.20;;
14782;SDS011;7483;50.498;12.138;2023-04-06T13:53:49;1.75;;;1.30;;
14782;SDS011;7483;50.498;12.138;2023-04-06T13:56:20;1.38;;;1.27;;
14782;SDS011;7483;50.498;12.138;2023-04-06T13:58:47;1.33;;;1.23;;
14782;SDS011;7483;50.498;12.138;2023-04-06T14:01:15;0.80;;;0.80;;
14782;SDS011;7483;50.498;12.138;2023-04-06T14:03:43;1.05;;;1.00;;
14782;SDS011;7483;50.498;12.138;2023-04-06T14:06:14;1.58;;;1.00;;
14782;SDS011;7483;50.498;12.138;2023-04-06T14:08:56;1.50;;;1.40;;
14782;SDS011;7483;50.498;12.138;2023-04-06T14:11:25;0.90;;;0.90;;
14782;SDS011;7483;50.498;12.138;2023-04-06T14:13:53;1.02;;;1.02;;
14782;SDS011;7483;50.498;12.138;2023-04-06T14:16:23;1.08;;;1.00;;
14782;SDS011;7483;50.498;12.138;2023-04-06T14:18:51;1.00;;;0.88;;
14782;SDS011;7483;50.498;12.138;2023-04-06T14:21:19;1.30;;;1.20;;
14782;SDS011;7483;50.498;12.138;2023-04-06T14:23:47;1.33;;;1.00;;
14782;SDS011;7483;50.498;12.138;2023-04-06T14:26:14;1.15;;;1.05;;
14782;SDS011;7483;50.498;12.138;2023-04-06T14:28:44;1.42;;;1.20;;
14782;SDS011;7483;50.498;12.138;2023-04-06T14:31:12;1.10;;;1.00;;
14782;SDS011;7483;50.498;12.138;2023-04-06T14:33:41;0.98;;;0.98;;
14782;SDS011;7483;50.498;12.138;2023-04-06T14:36:10;1.35;;;1.25;;
14782;SDS011;7483;50.498;12.138;2023-04-06T14:38:37;1.15;;;1.05;;
14782;SDS011;7483;50.498;12.138;2023-04-06T14:41:06;1.23;;;1.13;;
14782;SDS011;7483;50.498;12.138;2023-04-06T14:43:34;0.90;;;0.90;;
14782;SDS011;7483;50.498;12.138;2023-04-06T14:46:03;1.25;;;1.13;;
14782;SDS011;7483;50.498;12.138;2023-04-06T14:48:30;1.20;;;1.10;;
14782;SDS011;7483;50.498;12.138;2023-04-06T14:50:58;1.42;;;1.15;;
14782;SDS011;7483;50.498;12.138;2023-04-06T14:53:26;1.27;;;1.17;;
14782;SDS011;7483;50.498;12.138;2023-04-06T14:55:54;1.38;;;1.27;;
14782;SDS011;7483;50.498;12.138;2023-04-06T14:58:21;1.00;;;1.00;;
14782;SDS011;7483;50.498;12.138;2023-04-06T15:00:49;1.23;;;1.13;;
14782;SDS011;7483;50.498;12.138;2023-04-06T15:03:23;1.20;;;1.10;;